Time;durP1;ratioP1;P1;durP2;ratioP2;P2;SDS_P1;SDS_P2;PMS_P1;PMS_P2;Temp;Humidity;BMP_temperature;BMP_pressure;BME280_temperature;BME280_humidity;BME280_pressure;Samples;Min_cycle;Max_cycle;Signal;HPM_P1;HPM_P2
2023/01/30 00:00:25;;;;;;;;;22.75;19.00;;;;;;;;5102294;27;62611;-71
2023/01/30 00:02:50;;;;;;;;;22.00;18.50;;;;;;;;5104424;27;61760;-71
2023/01/30 00:05:16;;;;;;;;;25.75;23.25;;;;;;;;5106253;27;61671;-70
2023/01/30 00:07:41;;;;;;;;;28.75;26.00;;;;;;;;5104501;27;61774;-70
2023/01/30 00:10:07;;;;;;;;;35.75;20.25;;;;;;;;5105510;27;62004;-71
2023/01/30 00:12:32;;;;;;;;;30.50;27.00;;;;;;;;5104455;27;61921;-71
2023/01/30 00:14:57;;;;;;;;;22.25;15.00;;;;;;;;5105814;27;62171;-70
2023/01/30 00:17:22;;;;;;;;;24.25;21.00;;;;;;;;5103913;27;64860;-71
2023/01/30 00:19:48;;;;;;;;;24.25;18.00;;;;;;;;5104180;27;61749;-70
2023/01/30 00:22:13;;;;;;;;;30.75;21.00;;;;;;;;5105400;27;61611;-70
2023/01/30 00:24:38;;;;;;;;;28.75;22.25;;;;;;;;5106171;27;61756;-70
2023/01/30 00:27:04;;;;;;;;;22.00;15.75;;;;;;;;5105147;27;61715;-71
2023/01/30 00:29:29;;;;;;;;;23.50;21.00;;;;;;;;5103679;27;61738;-70
2023/01/30 00:31:54;;;;;;;;;28.00;21.00;;;;;;;;5105673;27;61669;-70
2023/01/30 00:34:19;;;;;;;;;32.75;23.00;;;;;;;;5105751;27;62188;-70
2023/01/30 00:36:44;;;;;;;;;24.25;21.50;;;;;;;;5104763;27;62062;-70
2023/01/30 00:39:10;;;;;;;;;27.50;25.00;;;;;;;;5101020;27;62072;-71
2023/01/30 00:47:07;;;;;;;;;24.75;19.00;;;;;;;;5104933;27;61746;-70
2023/01/30 00:49:32;;;;;;;;;26.25;18.00;;;;;;;;5105002;27;61753;-71
2023/01/30 00:51:58;;;;;;;;;37.75;23.00;;;;;;;;5105400;27;61759;-71
2023/01/30 00:54:23;;;;;;;;;26.25;20.75;;;;;;;;5105060;27;62054;-70
2023/01/30 00:56:48;;;;;;;;;20.25;20.00;;;;;;;;5104813;27;61871;-70
2023/01/30 00:59:14;;;;;;;;;25.50;18.25;;;;;;;;5105101;27;61833;-70
2023/01/30 01:01:39;;;;;;;;;28.25;19.00;;;;;;;;5104758;27;62152;-70
2023/01/30 01:04:05;;;;;;;;;23.50;15.75;;;;;;;;5105331;27;62173;-70
2023/01/30 01:06:30;;;;;;;;;36.50;22.50;;;;;;;;5104549;27;62421;-70
2023/01/30 01:08:56;;;;;;;;;29.25;22.00;;;;;;;;5102946;27;61769;-70
2023/01/30 01:11:24;;;;;;;;;33.25;19.25;;;;;;;;5105201;27;62343;-71
2023/01/30 01:13:56;;;;;;;;;20.50;18.75;;;;;;;;5104690;27;61806;-70
2023/01/30 01:16:22;;;;;;;;;25.75;17.75;;;;;;;;5103924;27;61902;-70
2023/01/30 01:18:48;;;;;;;;;28.25;18.50;;;;;;;;5104681;27;61800;-70
2023/01/30 01:21:13;;;;;;;;;23.25;18.50;;;;;;;;5105004;27;61959;-71
2023/01/30 01:23:38;;;;;;;;;23.25;20.25;;;;;;;;5103584;27;61763;-70
2023/01/30 01:26:04;;;;;;;;;24.25;17.75;;;;;;;;5104379;27;62656;-70
2023/01/30 01:28:29;;;;;;;;;18.00;18.00;;;;;;;;5103163;27;61782;-70
2023/01/30 01:30:54;;;;;;;;;23.50;18.75;;;;;;;;5104323;27;62065;-70
2023/01/30 01:33:19;;;;;;;;;24.75;18.50;;;;;;;;5104562;27;62235;-70
2023/01/30 01:35:46;;;;;;;;;24.50;20.50;;;;;;;;5104245;27;61718;-70
2023/01/30 01:38:11;;;;;;;;;22.75;18.50;;;;;;;;5103437;27;62075;-70
2023/01/30 01:43:22;;;;;;;;;27.00;16.75;;;;;;;;5104850;27;61829;-71
2023/01/30 01:45:50;;;;;;;;;23.00;17.75;;;;;;;;5104061;27;61894;-70
2023/01/30 01:48:26;;;;;;;;;21.75;15.00;;;;;;;;5104133;27;61982;-70
2023/01/30 01:51:00;;;;;;;;;29.25;19.00;;;;;;;;5104513;27;61814;-70
2023/01/30 01:53:29;;;;;;;;;24.00;19.50;;;;;;;;5104635;27;61774;-70
2023/01/30 01:55:56;;;;;;;;;16.50;12.25;;;;;;;;5102606;27;64530;-70
2023/01/30 01:58:41;;;;;;;;;15.75;14.25;;;;;;;;5104402;27;61967;-70
2023/01/30 02:01:06;;;;;;;;;21.25;19.00;;;;;;;;5103801;27;61754;-70
2023/01/30 02:03:33;;;;;;;;;22.00;17.75;;;;;;;;5104227;27;61996;-71
2023/01/30 02:06:01;;;;;;;;;26.25;22.00;;;;;;;;5103985;27;61953;-70
2023/01/30 02:08:31;;;;;;;;;21.75;15.25;;;;;;;;5103382;27;61806;-70
2023/01/30 02:10:56;;;;;;;;;22.25;18.00;;;;;;;;5102839;27;62098;-70
2023/01/30 02:13:22;;;;;;;;;20.00;16.50;;;;;;;;5104207;27;61826;-70
2023/01/30 02:15:48;;;;;;;;;21.75;15.75;;;;;;;;5103384;27;61796;-70
2023/01/30 02:18:14;;;;;;;;;26.00;16.75;;;;;;;;5103505;27;61832;-71
2023/01/30 02:20:53;;;;;;;;;25.75;19.25;;;;;;;;5102603;27;61710;-70
2023/01/30 02:23:37;;;;;;;;;28.00;16.50;;;;;;;;5104238;27;61706;-70
2023/01/30 02:26:05;;;;;;;;;31.25;15.25;;;;;;;;5102347;27;62825;-70
2023/01/30 02:28:53;;;;;;;;;22.25;16.25;;;;;;;;5103568;27;61920;-71
2023/01/30 02:31:37;;;;;;;;;18.00;14.00;;;;;;;;5102930;27;62101;-70
2023/01/30 02:34:12;;;;;;;;;21.75;18.50;;;;;;;;5102666;27;61877;-70
2023/01/30 02:36:41;;;;;;;;;22.75;15.75;;;;;;;;5103177;27;62870;-70
2023/01/30 02:39:10;;;;;;;;;31.50;18.75;;;;;;;;5102758;27;62105;-71
2023/01/30 02:41:42;;;;;;;;;18.50;15.00;;;;;;;;5103641;27;62579;-70
2023/01/30 02:44:13;;;;;;;;;24.25;15.50;;;;;;;;5103798;27;62063;-70
2023/01/30 02:46:57;;;;;;;;;26.25;17.50;;;;;;;;5102243;27;61998;-70
2023/01/30 02:49:27;;;;;;;;;18.00;16.75;;;;;;;;5103425;27;62284;-70
2023/01/30 02:51:55;;;;;;;;;19.50;15.25;;;;;;;;5102254;27;61735;-70
2023/01/30 02:54:20;;;;;;;;;26.75;17.75;;;;;;;;5103687;27;61720;-70
2023/01/30 02:56:51;;;;;;;;;20.50;16.00;;;;;;;;5102758;27;62339;-70
2023/01/30 02:59:18;;;;;;;;;26.25;18.25;;;;;;;;5103450;27;61739;-70
2023/01/30 03:01:43;;;;;;;;;21.00;13.75;;;;;;;;5102445;27;61745;-70
2023/01/30 03:04:30;;;;;;;;;20.75;14.00;;;;;;;;5102243;27;61811;-70
2023/01/30 03:06:55;;;;;;;;;19.00;15.50;;;;;;;;5101266;27;64382;-71
2023/01/30 03:09:50;;;;;;;;;18.75;16.75;;;;;;;;5102162;27;62028;-70
2023/01/30 03:12:21;;;;;;;;;18.25;14.25;;;;;;;;5093949;27;62686;-71
2023/01/30 03:15:02;;;;;;;;;17.50;13.75;;;;;;;;5102663;27;61997;-70
2023/01/30 03:17:28;;;;;;;;;12.50;9.50;;;;;;;;5102837;27;61872;-70
2023/01/30 03:19:54;;;;;;;;;22.00;17.00;;;;;;;;5102995;27;61838;-70
2023/01/30 03:22:20;;;;;;;;;15.50;12.50;;;;;;;;5102844;27;61957;-70
2023/01/30 03:24:45;;;;;;;;;20.00;17.75;;;;;;;;5101799;27;61826;-70
2023/01/30 03:27:11;;;;;;;;;21.50;17.75;;;;;;;;5102618;27;62425;-70
2023/01/30 03:29:37;;;;;;;;;23.00;19.50;;;;;;;;5102013;27;62131;-70
2023/01/30 03:32:03;;;;;;;;;19.50;13.75;;;;;;;;5102689;27;61814;-70
2023/01/30 03:34:28;;;;;;;;;21.75;18.25;;;;;;;;5103201;27;61870;-70
2023/01/30 03:36:53;;;;;;;;;17.50;12.50;;;;;;;;5104345;27;61920;-70
2023/01/30 03:39:19;;;;;;;;;15.75;13.75;;;;;;;;5101108;27;61748;-70
2023/01/30 03:41:44;;;;;;;;;17.25;15.00;;;;;;;;5106640;27;62453;-70
2023/01/30 03:44:10;;;;;;;;;19.00;13.50;;;;;;;;5106066;27;61787;-70
2023/01/30 03:46:35;;;;;;;;;30.25;17.00;;;;;;;;5105589;27;61786;-70
2023/01/30 03:49:00;;;;;;;;;18.75;15.00;;;;;;;;5105097;27;61813;-70
2023/01/30 03:51:25;;;;;;;;;23.00;17.25;;;;;;;;5106705;27;62030;-70
2023/01/30 03:53:51;;;;;;;;;20.75;16.00;;;;;;;;5106575;27;61748;-71
2023/01/30 03:56:16;;;;;;;;;23.25;15.50;;;;;;;;5105764;27;61746;-71
2023/01/30 03:58:41;;;;;;;;;19.50;10.00;;;;;;;;5105863;27;62041;-70
2023/01/30 04:01:07;;;;;;;;;19.25;16.25;;;;;;;;5105960;27;62057;-70
2023/01/30 04:03:32;;;;;;;;;19.25;17.25;;;;;;;;5106429;27;61839;-71
2023/01/30 04:05:58;;;;;;;;;22.50;17.00;;;;;;;;5105563;27;61777;-70
2023/01/30 04:08:23;;;;;;;;;20.75;16.00;;;;;;;;5105745;27;61918;-71
2023/01/30 04:10:48;;;;;;;;;24.25;17.25;;;;;;;;5105616;27;61996;-71
2023/01/30 04:13:13;;;;;;;;;23.50;18.75;;;;;;;;5105770;27;61938;-70
2023/01/30 04:15:39;;;;;;;;;19.75;17.00;;;;;;;;5105215;27;61863;-70
2023/01/30 04:18:04;;;;;;;;;28.25;19.75;;;;;;;;5106053;27;61926;-70
2023/01/30 04:20:29;;;;;;;;;19.75;16.75;;;;;;;;5104788;27;61872;-70
2023/01/30 04:22:57;;;;;;;;;23.25;13.75;;;;;;;;5105742;27;61761;-71
2023/01/30 04:25:22;;;;;;;;;22.75;19.25;;;;;;;;5105294;27;61769;-70
2023/01/30 04:27:47;;;;;;;;;26.75;17.25;;;;;;;;5105501;27;61800;-70
2023/01/30 04:30:13;;;;;;;;;18.00;10.25;;;;;;;;5105692;27;61883;-70
2023/01/30 04:32:38;;;;;;;;;25.75;17.50;;;;;;;;5105860;27;61622;-70
2023/01/30 04:35:04;;;;;;;;;26.50;19.50;;;;;;;;5104934;27;61767;-69
2023/01/30 04:37:29;;;;;;;;;27.75;16.50;;;;;;;;5105509;27;61836;-69
2023/01/30 04:39:54;;;;;;;;;25.00;16.50;;;;;;;;5103289;27;62297;-69
2023/01/30 04:42:20;;;;;;;;;22.50;13.75;;;;;;;;5105423;27;61862;-69
2023/01/30 04:44:45;;;;;;;;;32.50;18.25;;;;;;;;5104842;27;62861;-69
2023/01/30 04:47:10;;;;;;;;;17.00;15.25;;;;;;;;5105233;27;61764;-69
2023/01/30 04:49:35;;;;;;;;;18.00;17.00;;;;;;;;5104773;27;61875;-69
2023/01/30 04:52:01;;;;;;;;;21.50;18.25;;;;;;;;5104251;27;61902;-69
2023/01/30 04:54:26;;;;;;;;;20.75;16.50;;;;;;;;5104910;27;61903;-69
2023/01/30 04:56:51;;;;;;;;;17.25;12.25;;;;;;;;5104944;27;61821;-69
2023/01/30 04:59:16;;;;;;;;;16.25;14.25;;;;;;;;5105354;27;61914;-69
2023/01/30 05:01:42;;;;;;;;;21.50;14.25;;;;;;;;5105294;27;61889;-69
2023/01/30 05:04:07;;;;;;;;;17.25;16.25;;;;;;;;5104648;27;61983;-70
2023/01/30 05:06:33;;;;;;;;;24.50;17.75;;;;;;;;5104939;27;61892;-69
2023/01/30 05:08:59;;;;;;;;;21.75;14.50;;;;;;;;5104648;27;61950;-69
2023/01/30 05:11:25;;;;;;;;;15.50;14.25;;;;;;;;5105173;27;61770;-70
2023/01/30 05:13:50;;;;;;;;;21.50;16.25;;;;;;;;5103254;27;63422;-69
2023/01/30 05:16:17;;;;;;;;;20.00;13.50;;;;;;;;5104550;27;61808;-70
2023/01/30 05:18:42;;;;;;;;;16.25;14.00;;;;;;;;5105249;27;61914;-69
2023/01/30 05:21:10;;;;;;;;;16.75;11.75;;;;;;;;5105099;27;61673;-69
2023/01/30 05:23:35;;;;;;;;;24.00;16.00;;;;;;;;5104367;27;61802;-69
2023/01/30 05:26:01;;;;;;;;;20.75;15.00;;;;;;;;5103141;27;62026;-69
2023/01/30 05:28:27;;;;;;;;;19.50;14.25;;;;;;;;5105155;27;61882;-69
2023/01/30 05:30:53;;;;;;;;;15.00;13.25;;;;;;;;5104182;27;61976;-69
2023/01/30 05:33:18;;;;;;;;;16.75;10.75;;;;;;;;5104201;27;61962;-70
2023/01/30 05:35:47;;;;;;;;;17.75;14.75;;;;;;;;5103696;27;61972;-69
2023/01/30 05:38:12;;;;;;;;;17.00;15.00;;;;;;;;5100769;27;61843;-69
2023/01/30 05:40:38;;;;;;;;;20.00;18.00;;;;;;;;5102968;27;62031;-69
2023/01/30 05:43:03;;;;;;;;;21.75;16.00;;;;;;;;5103778;27;61746;-69
2023/01/30 05:45:28;;;;;;;;;18.75;14.75;;;;;;;;5103405;27;61768;-69
2023/01/30 05:47:54;;;;;;;;;21.50;18.25;;;;;;;;5105010;27;61680;-69
2023/01/30 05:50:19;;;;;;;;;16.50;15.00;;;;;;;;5104592;27;61683;-69
2023/01/30 05:52:44;;;;;;;;;19.00;14.00;;;;;;;;5103919;27;63112;-69
2023/01/30 05:55:09;;;;;;;;;15.25;14.25;;;;;;;;5104157;27;61703;-69
2023/01/30 05:57:35;;;;;;;;;20.75;14.50;;;;;;;;5104516;27;61770;-69
2023/01/30 06:00:00;;;;;;;;;22.75;15.25;;;;;;;;5104359;27;61713;-69
2023/01/30 06:02:27;;;;;;;;;22.75;16.75;;;;;;;;5103627;27;61749;-69
2023/01/30 06:04:54;;;;;;;;;2.75;2.25;;;;;;;;5104418;27;62065;-72
2023/01/30 06:07:19;;;;;;;;;14.50;12.00;;;;;;;;5104454;27;61797;-74
2023/01/30 06:09:44;;;;;;;;;18.50;15.25;;;;;;;;5103747;27;61948;-72
2023/01/30 06:12:10;;;;;;;;;20.25;13.75;;;;;;;;5103409;27;61799;-72
2023/01/30 06:14:35;;;;;;;;;18.50;15.00;;;;;;;;5104260;27;61848;-72
2023/01/30 06:17:00;;;;;;;;;15.00;14.00;;;;;;;;5103713;27;62190;-74
2023/01/30 06:19:25;;;;;;;;;15.25;14.50;;;;;;;;5104277;27;62152;-72
2023/01/30 06:21:51;;;;;;;;;20.00;11.50;;;;;;;;5104014;27;61885;-72
2023/01/30 06:24:16;;;;;;;;;13.50;10.00;;;;;;;;5084620;27;61999;-73
2023/01/30 06:26:41;;;;;;;;;21.50;14.25;;;;;;;;5085655;27;61923;-74
2023/01/30 06:29:06;;;;;;;;;13.50;11.50;;;;;;;;5085816;27;61942;-73
2023/01/30 06:31:32;;;;;;;;;18.50;11.00;;;;;;;;5102827;27;61960;-73
2023/01/30 06:33:57;;;;;;;;;19.75;15.25;;;;;;;;5103487;27;62040;-72
2023/01/30 06:36:22;;;;;;;;;13.75;11.25;;;;;;;;5103702;27;62001;-73
2023/01/30 06:38:47;;;;;;;;;19.50;14.50;;;;;;;;5087969;27;61710;-71
2023/01/30 06:41:13;;;;;;;;;19.25;14.50;;;;;;;;5082209;28;61901;-72
2023/01/30 06:43:41;;;;;;;;;16.00;14.25;;;;;;;;5083161;28;62076;-72
2023/01/30 06:46:06;;;;;;;;;16.50;11.25;;;;;;;;5069890;28;61911;-71
2023/01/30 06:48:32;;;;;;;;;13.50;13.50;;;;;;;;5062833;28;61830;-71
2023/01/30 06:50:57;;;;;;;;;22.50;15.75;;;;;;;;5062031;28;62778;-71
2023/01/30 06:53:28;;;;;;;;;17.00;16.25;;;;;;;;5061870;28;61903;-74
2023/01/30 06:55:54;;;;;;;;;14.25;11.75;;;;;;;;5084515;27;61834;-74
2023/01/30 06:58:19;;;;;;;;;16.00;14.00;;;;;;;;5103596;27;61963;-74
2023/01/30 07:00:44;;;;;;;;;18.50;14.75;;;;;;;;5102114;27;62013;-74
2023/01/30 07:03:14;;;;;;;;;19.25;10.25;;;;;;;;5103455;27;61874;-73
2023/01/30 07:05:40;;;;;;;;;19.75;11.50;;;;;;;;5103373;27;61921;-74
2023/01/30 07:08:05;;;;;;;;;24.00;13.75;;;;;;;;5102606;27;62028;-72
2023/01/30 07:10:31;;;;;;;;;18.50;13.50;;;;;;;;5102044;27;62142;-71
2023/01/30 07:12:57;;;;;;;;;18.50;14.25;;;;;;;;5093491;27;61947;-72
2023/01/30 07:15:22;;;;;;;;;15.25;14.75;;;;;;;;5103318;27;61779;-71
2023/01/30 07:17:48;;;;;;;;;24.25;15.00;;;;;;;;5103557;27;61888;-71
2023/01/30 07:20:13;;;;;;;;;17.75;14.00;;;;;;;;5102318;27;61659;-71
2023/01/30 07:22:38;;;;;;;;;20.50;16.00;;;;;;;;5102159;27;61717;-71
2023/01/30 07:25:04;;;;;;;;;17.00;14.50;;;;;;;;5101160;27;61983;-71
2023/01/30 07:27:29;;;;;;;;;17.00;11.75;;;;;;;;5101341;27;61951;-71
2023/01/30 07:29:54;;;;;;;;;14.75;11.25;;;;;;;;5101422;27;61909;-72
2023/01/30 07:32:20;;;;;;;;;16.50;14.25;;;;;;;;5101665;27;61706;-72
2023/01/30 07:34:48;;;;;;;;;14.75;13.50;;;;;;;;5103012;27;61829;-72
2023/01/30 07:37:14;;;;;;;;;14.00;13.75;;;;;;;;5102769;27;61852;-72
2023/01/30 07:39:39;;;;;;;;;17.25;14.25;;;;;;;;5101506;27;61927;-72
2023/01/30 07:42:05;;;;;;;;;19.25;15.25;;;;;;;;5102790;27;62314;-72
2023/01/30 07:44:32;;;;;;;;;23.50;13.75;;;;;;;;5102849;27;61692;-72
2023/01/30 07:46:58;;;;;;;;;20.25;14.75;;;;;;;;5102764;27;61922;-72
2023/01/30 07:49:23;;;;;;;;;17.50;12.75;;;;;;;;5101681;27;62215;-72
2023/01/30 07:51:48;;;;;;;;;25.00;19.00;;;;;;;;5101681;27;61994;-72
2023/01/30 07:54:13;;;;;;;;;17.75;14.00;;;;;;;;5100129;27;61868;-72
2023/01/30 07:56:39;;;;;;;;;23.25;18.00;;;;;;;;5102017;27;61735;-75
2023/01/30 07:59:04;;;;;;;;;19.50;13.50;;;;;;;;5099199;27;62106;-72
2023/01/30 08:01:30;;;;;;;;;17.25;17.25;;;;;;;;5100653;27;62151;-74
2023/01/30 08:03:55;;;;;;;;;24.50;15.00;;;;;;;;5100364;27;62121;-76
2023/01/30 08:06:20;;;;;;;;;15.75;11.25;;;;;;;;5101579;27;61704;-72
2023/01/30 08:08:45;;;;;;;;;20.25;13.75;;;;;;;;5100386;27;62676;-72
2023/01/30 08:11:11;;;;;;;;;16.75;14.00;;;;;;;;5102089;27;61820;-72
2023/01/30 08:13:36;;;;;;;;;18.75;12.50;;;;;;;;5102077;27;61798;-72
2023/01/30 08:16:03;;;;;;;;;21.50;17.00;;;;;;;;5102295;27;62138;-72
2023/01/30 08:18:29;;;;;;;;;19.25;15.25;;;;;;;;5102005;27;62674;-72
2023/01/30 08:20:57;;;;;;;;;23.25;16.25;;;;;;;;5100317;27;61855;-72
2023/01/30 08:23:23;;;;;;;;;18.25;12.75;;;;;;;;5103613;27;62090;-72
2023/01/30 08:25:48;;;;;;;;;25.75;16.00;;;;;;;;5105725;27;61787;-72
2023/01/30 08:28:13;;;;;;;;;17.75;14.75;;;;;;;;5105383;27;61711;-72
2023/01/30 08:30:39;;;;;;;;;23.00;14.50;;;;;;;;5103853;27;62096;-72
2023/01/30 08:33:05;;;;;;;;;17.00;12.00;;;;;;;;5105860;27;61694;-72
2023/01/30 08:35:30;;;;;;;;;20.50;14.50;;;;;;;;5105524;27;61692;-71
2023/01/30 08:37:55;;;;;;;;;12.50;12.50;;;;;;;;5099363;27;64948;-73
2023/01/30 08:40:20;;;;;;;;;16.25;16.25;;;;;;;;5105717;27;61734;-72
2023/01/30 08:42:46;;;;;;;;;19.50;16.00;;;;;;;;5104083;27;61836;-72
2023/01/30 08:45:11;;;;;;;;;16.50;10.50;;;;;;;;5105358;27;61780;-72
2023/01/30 08:47:36;;;;;;;;;15.00;12.00;;;;;;;;5104914;27;62658;-72
2023/01/30 08:50:02;;;;;;;;;16.25;12.75;;;;;;;;5104930;27;62126;-72
2023/01/30 08:52:28;;;;;;;;;12.50;8.25;;;;;;;;5105671;27;61738;-73
2023/01/30 08:54:53;;;;;;;;;19.25;13.00;;;;;;;;5105552;27;61757;-72
2023/01/30 08:57:19;;;;;;;;;17.75;15.25;;;;;;;;5104602;27;62502;-72
2023/01/30 08:59:44;;;;;;;;;15.75;13.00;;;;;;;;5103765;27;61815;-72
2023/01/30 09:02:11;;;;;;;;;14.50;9.50;;;;;;;;5103841;27;61848;-71
2023/01/30 09:04:36;;;;;;;;;13.25;11.00;;;;;;;;5105260;27;61786;-71
2023/01/30 09:07:02;;;;;;;;;19.75;14.50;;;;;;;;5104488;27;63140;-71
2023/01/30 09:09:27;;;;;;;;;18.75;15.25;;;;;;;;5104815;27;61886;-71
2023/01/30 09:11:52;;;;;;;;;15.50;13.50;;;;;;;;5104333;27;61860;-72
2023/01/30 09:14:18;;;;;;;;;13.25;13.00;;;;;;;;5105523;27;61739;-72
2023/01/30 09:16:54;;;;;;;;;17.50;15.50;;;;;;;;5103828;27;62548;-72
2023/01/30 09:19:19;;;;;;;;;14.50;11.00;;;;;;;;5105119;27;61827;-71
2023/01/30 09:21:44;;;;;;;;;12.00;11.00;;;;;;;;5104697;27;62126;-72
2023/01/30 09:24:09;;;;;;;;;15.00;12.25;;;;;;;;5105126;27;61858;-72
2023/01/30 09:26:35;;;;;;;;;20.50;12.50;;;;;;;;5104391;27;61740;-71
2023/01/30 09:29:00;;;;;;;;;14.25;11.50;;;;;;;;5104885;27;61917;-71
2023/01/30 09:31:25;;;;;;;;;16.75;12.75;;;;;;;;5104004;27;61685;-72
2023/01/30 09:33:51;;;;;;;;;17.50;14.00;;;;;;;;5104430;27;61991;-71
2023/01/30 09:36:16;;;;;;;;;16.25;11.00;;;;;;;;5102823;27;61843;-71
2023/01/30 09:38:41;;;;;;;;;22.50;16.50;;;;;;;;5100770;27;62176;-71
2023/01/30 09:41:27;;;;;;;;;19.50;12.25;;;;;;;;5104456;27;61800;-71
2023/01/30 09:44:11;;;;;;;;;16.75;12.00;;;;;;;;5104360;27;61825;-71
2023/01/30 09:46:39;;;;;;;;;16.50;15.00;;;;;;;;5103268;27;62558;-71
2023/01/30 09:49:10;;;;;;;;;20.50;14.00;;;;;;;;5104408;27;61750;-71
2023/01/30 09:51:41;;;;;;;;;17.25;10.00;;;;;;;;5104736;27;61890;-71
2023/01/30 09:54:21;;;;;;;;;24.25;15.50;;;;;;;;5104525;27;61880;-71
2023/01/30 09:56:50;;;;;;;;;19.50;12.00;;;;;;;;5103890;27;62716;-71
2023/01/30 09:59:24;;;;;;;;;20.75;16.25;;;;;;;;5102796;27;61872;-71
2023/01/30 10:01:49;;;;;;;;;15.75;13.75;;;;;;;;5103810;27;61738;-71
2023/01/30 10:04:22;;;;;;;;;21.75;15.50;;;;;;;;5104615;27;61909;-72
2023/01/30 10:06:53;;;;;;;;;14.25;12.00;;;;;;;;5103720;27;61897;-71
2023/01/30 10:09:42;;;;;;;;;18.75;15.25;;;;;;;;5101918;27;61946;-71
2023/01/30 10:12:07;;;;;;;;;18.25;15.00;;;;;;;;5103789;27;61940;-71
2023/01/30 10:14:44;;;;;;;;;19.75;15.00;;;;;;;;5104439;27;61770;-71
2023/01/30 10:17:15;;;;;;;;;17.00;16.25;;;;;;;;5103219;27;61973;-71
2023/01/30 10:19:53;;;;;;;;;19.50;16.50;;;;;;;;5103955;27;61934;-71
2023/01/30 10:22:18;;;;;;;;;20.00;16.75;;;;;;;;5103978;27;61983;-71
2023/01/30 10:24:43;;;;;;;;;16.50;13.00;;;;;;;;5104233;27;62393;-72
2023/01/30 10:27:14;;;;;;;;;12.75;12.25;;;;;;;;5101948;27;63768;-71
2023/01/30 10:29:41;;;;;;;;;12.75;8.25;;;;;;;;5103565;27;61700;-71
2023/01/30 10:32:25;;;;;;;;;14.75;11.50;;;;;;;;5103417;27;62261;-71
2023/01/30 10:34:52;;;;;;;;;17.75;12.25;;;;;;;;5104109;27;61705;-71
2023/01/30 10:37:20;;;;;;;;;12.75;8.00;;;;;;;;5103347;27;61956;-71
2023/01/30 10:39:51;;;;;;;;;18.75;13.75;;;;;;;;5103163;27;61917;-71
2023/01/30 10:42:22;;;;;;;;;22.75;14.25;;;;;;;;5103534;27;61645;-72
2023/01/30 10:44:48;;;;;;;;;17.25;12.75;;;;;;;;5103388;27;61883;-71
2023/01/30 10:47:21;;;;;;;;;13.25;13.00;;;;;;;;5101863;27;61715;-71
2023/01/30 10:49:55;;;;;;;;;11.75;9.75;;;;;;;;5103468;27;61768;-72
2023/01/30 10:52:20;;;;;;;;;18.75;11.25;;;;;;;;5102814;27;61997;-72
2023/01/30 10:54:53;;;;;;;;;14.00;11.25;;;;;;;;5083079;27;61898;-72
2023/01/30 10:57:18;;;;;;;;;18.25;12.25;;;;;;;;5082408;28;61727;-72
2023/01/30 11:00:11;;;;;;;;;10.00;9.00;;;;;;;;5082809;28;62059;-71
2023/01/30 11:02:55;;;;;;;;;11.75;9.00;;;;;;;;5082789;28;62053;-71
2023/01/30 11:05:23;;;;;;;;;15.00;11.75;;;;;;;;5083162;28;61697;-71
2023/01/30 11:07:48;;;;;;;;;18.00;11.50;;;;;;;;5081893;28;62767;-71
2023/01/30 11:10:21;;;;;;;;;15.50;9.00;;;;;;;;5082612;28;62031;-71
2023/01/30 11:12:47;;;;;;;;;15.50;12.00;;;;;;;;5082141;28;62049;-72
2023/01/30 11:15:13;;;;;;;;;16.50;9.00;;;;;;;;5082300;28;61840;-71
2023/01/30 11:17:40;;;;;;;;;7.75;7.75;;;;;;;;5082375;28;61878;-71
2023/01/30 11:20:17;;;;;;;;;9.75;8.00;;;;;;;;5082494;27;61910;-71
2023/01/30 11:23:03;;;;;;;;;10.25;9.00;;;;;;;;5081558;28;61843;-72
2023/01/30 11:25:28;;;;;;;;;11.00;8.75;;;;;;;;5082681;28;62078;-72
2023/01/30 11:27:58;;;;;;;;;7.50;7.25;;;;;;;;5081741;28;61761;-72
2023/01/30 11:30:26;;;;;;;;;11.75;7.50;;;;;;;;5081756;28;62157;-72
2023/01/30 11:33:03;;;;;;;;;11.50;8.00;;;;;;;;5082713;28;61755;-71
2023/01/30 11:35:28;;;;;;;;;2.00;0.75;;;;;;;;5082842;28;61716;-72
2023/01/30 11:38:09;;;;;;;;;6.50;6.50;;;;;;;;5081442;27;61960;-72
2023/01/30 11:40:36;;;;;;;;;8.00;6.25;;;;;;;;5103017;27;61862;-71
2023/01/30 11:43:09;;;;;;;;;3.75;2.00;;;;;;;;5102580;27;61907;-71
2023/01/30 11:45:36;;;;;;;;;6.00;6.00;;;;;;;;5103115;27;61833;-73
2023/01/30 11:48:04;;;;;;;;;6.25;5.50;;;;;;;;5102598;27;62924;-72
2023/01/30 11:50:31;;;;;;;;;10.25;7.00;;;;;;;;5102865;27;61627;-72
2023/01/30 11:53:00;;;;;;;;;9.00;6.50;;;;;;;;5101434;27;61914;-72
2023/01/30 11:55:26;;;;;;;;;9.25;8.00;;;;;;;;5102463;27;62110;-72
2023/01/30 11:57:57;;;;;;;;;14.00;8.50;;;;;;;;5103607;27;61852;-72
2023/01/30 12:00:37;;;;;;;;;6.75;6.75;;;;;;;;5104259;27;62145;-72
2023/01/30 12:03:04;;;;;;;;;11.50;5.25;;;;;;;;5106301;27;62635;-72
2023/01/30 12:05:35;;;;;;;;;10.25;8.50;;;;;;;;5106450;27;62127;-72
2023/01/30 12:08:22;;;;;;;;;8.25;7.00;;;;;;;;5104019;27;63496;-72
2023/01/30 12:10:53;;;;;;;;;16.25;10.00;;;;;;;;5105579;27;61856;-72
2023/01/30 12:13:19;;;;;;;;;8.75;8.00;;;;;;;;5104929;27;61885;-72
2023/01/30 12:15:47;;;;;;;;;11.00;6.75;;;;;;;;5104345;27;61949;-72
2023/01/30 12:18:21;;;;;;;;;18.50;16.00;;;;;;;;5103877;27;63446;-72
2023/01/30 12:20:59;;;;;;;;;13.75;11.50;;;;;;;;5105791;27;62020;-72
2023/01/30 12:23:37;;;;;;;;;13.75;7.75;;;;;;;;5105287;27;61898;-72
2023/01/30 12:26:06;;;;;;;;;11.00;7.75;;;;;;;;5105711;27;62116;-72
2023/01/30 12:28:31;;;;;;;;;8.75;7.75;;;;;;;;5104974;27;61869;-72
2023/01/30 12:31:01;;;;;;;;;8.00;4.50;;;;;;;;5104105;27;62059;-72
2023/01/30 12:33:28;;;;;;;;;7.75;6.75;;;;;;;;5105726;27;62130;-72
2023/01/30 12:35:56;;;;;;;;;9.00;7.25;;;;;;;;5105980;27;62074;-72
2023/01/30 12:38:31;;;;;;;;;12.25;9.25;;;;;;;;5104422;27;61779;-72
2023/01/30 12:41:02;;;;;;;;;7.25;7.25;;;;;;;;5105428;27;61905;-72
2023/01/30 12:43:34;;;;;;;;;7.25;7.25;;;;;;;;5105464;27;61822;-72
2023/01/30 12:45:59;;;;;;;;;9.00;7.00;;;;;;;;5105957;27;61649;-72
2023/01/30 12:48:41;;;;;;;;;9.50;7.50;;;;;;;;5103601;27;64254;-72
2023/01/30 12:51:26;;;;;;;;;7.50;7.50;;;;;;;;5105732;27;61747;-72
2023/01/30 12:53:51;;;;;;;;;8.00;4.00;;;;;;;;5104586;27;62188;-72
2023/01/30 12:56:23;;;;;;;;;5.75;4.00;;;;;;;;5104953;27;62153;-72
2023/01/30 12:58:57;;;;;;;;;10.50;7.00;;;;;;;;5104950;27;61940;-72
2023/01/30 13:01:28;;;;;;;;;10.25;6.25;;;;;;;;5104815;27;61726;-72
2023/01/30 13:04:05;;;;;;;;;5.50;5.50;;;;;;;;5105604;27;61879;-72
2023/01/30 13:06:48;;;;;;;;;10.00;5.50;;;;;;;;5105380;27;61743;-72
2023/01/30 13:09:32;;;;;;;;;10.75;7.00;;;;;;;;5102749;27;61800;-72
2023/01/30 13:12:01;;;;;;;;;11.75;10.75;;;;;;;;5103796;27;61774;-73
2023/01/30 13:14:32;;;;;;;;;8.00;7.00;;;;;;;;5105081;27;62143;-73
2023/01/30 13:17:09;;;;;;;;;14.00;7.00;;;;;;;;5105246;27;61766;-73
2023/01/30 13:19:40;;;;;;;;;8.50;6.75;;;;;;;;5104218;27;61893;-73
2023/01/30 13:22:05;;;;;;;;;8.75;7.75;;;;;;;;5105154;27;61827;-72
2023/01/30 13:24:46;;;;;;;;;7.25;6.00;;;;;;;;5103160;27;61749;-73
2023/01/30 13:27:14;;;;;;;;;4.75;3.00;;;;;;;;5105351;27;61905;-73
2023/01/30 13:29:41;;;;;;;;;8.50;6.00;;;;;;;;5103868;27;61815;-73
2023/01/30 13:32:28;;;;;;;;;7.00;7.00;;;;;;;;5104612;27;62192;-73
2023/01/30 13:34:55;;;;;;;;;9.75;8.00;;;;;;;;5103777;27;61723;-73
2023/01/30 13:37:21;;;;;;;;;11.75;7.00;;;;;;;;5103952;27;62207;-73
2023/01/30 13:39:51;;;;;;;;;10.50;8.00;;;;;;;;5102795;27;61701;-73
2023/01/30 13:42:39;;;;;;;;;14.25;8.50;;;;;;;;5104725;27;61818;-73
2023/01/30 13:45:08;;;;;;;;;14.25;9.50;;;;;;;;5095193;27;61850;-73
2023/01/30 13:47:52;;;;;;;;;6.75;6.25;;;;;;;;5103463;27;61820;-72
2023/01/30 13:50:33;;;;;;;;;9.00;9.00;;;;;;;;5103968;27;61796;-73
2023/01/30 13:53:02;;;;;;;;;12.00;11.50;;;;;;;;5104136;27;61730;-73
2023/01/30 13:55:28;;;;;;;;;7.25;6.00;;;;;;;;5104643;27;61867;-72
2023/01/30 13:58:29;;;;;;;;;12.25;8.75;;;;;;;;5104931;27;61744;-72
2023/01/30 14:00:55;;;;;;;;;10.00;7.75;;;;;;;;5059942;28;62245;-73
2023/01/30 14:03:23;;;;;;;;;4.00;4.00;;;;;;;;5061052;28;61860;-73
2023/01/30 14:05:51;;;;;;;;;8.25;7.00;;;;;;;;5060900;28;61825;-72
2023/01/30 14:08:26;;;;;;;;;13.75;9.00;;;;;;;;5060483;28;62044;-73
2023/01/30 14:10:54;;;;;;;;;6.00;5.00;;;;;;;;5060090;28;62640;-73
2023/01/30 14:13:20;;;;;;;;;5.00;5.00;;;;;;;;5061059;28;62301;-72
2023/01/30 14:15:59;;;;;;;;;8.75;7.25;;;;;;;;5060644;28;61973;-73
2023/01/30 14:18:37;;;;;;;;;7.25;7.25;;;;;;;;5044255;28;61908;-73
2023/01/30 14:21:19;;;;;;;;;7.25;7.25;;;;;;;;5059197;28;62022;-73
2023/01/30 14:23:57;;;;;;;;;9.00;6.25;;;;;;;;5060477;28;61749;-73
2023/01/30 14:26:41;;;;;;;;;6.50;6.25;;;;;;;;5043496;28;61907;-72
2023/01/30 14:29:06;;;;;;;;;7.00;5.00;;;;;;;;5060769;28;61964;-73
2023/01/30 14:31:46;;;;;;;;;9.00;7.00;;;;;;;;5041892;28;63621;-72
2023/01/30 14:34:38;;;;;;;;;12.50;9.50;;;;;;;;5068774;27;61801;-73
2023/01/30 14:37:23;;;;;;;;;7.75;7.75;;;;;;;;5101845;27;62179;-72